createdAt,value
2022-10-17T00:00:05.461Z,13.38
2022-10-17T00:02:31.893Z,15.20
2022-10-17T00:04:58.343Z,14.18
2022-10-17T00:07:26.074Z,13.95
2022-10-17T00:09:52.772Z,13.80
2022-10-17T00:12:19.229Z,13.93
2022-10-17T00:14:45.728Z,15.45
2022-10-17T00:17:12.130Z,14.57
2022-10-17T00:19:38.535Z,17.05
2022-10-17T00:22:04.953Z,15.23
2022-10-17T00:24:31.699Z,16.10
2022-10-17T00:26:58.115Z,14.50
2022-10-17T00:29:24.505Z,19.25
2022-10-17T00:34:21.159Z,21.08
2022-10-17T00:36:47.658Z,17.20
2022-10-17T00:39:14.112Z,18.35
2022-10-17T00:41:40.519Z,16.83
2022-10-17T00:44:28.048Z,17.42
2022-10-17T00:46:54.959Z,17.77
2022-10-17T00:49:23.906Z,17.25
2022-10-17T00:51:53.842Z,21.88
2022-10-17T00:54:24.524Z,20.13
2022-10-17T00:56:51.377Z,16.77
2022-10-17T00:59:20.089Z,16.85
2022-10-17T01:02:02.158Z,23.38
2022-10-17T01:04:28.756Z,18.85
2022-10-17T01:06:55.192Z,20.55
2022-10-17T01:09:21.947Z,18.65
2022-10-17T01:12:14.030Z,22.40
2022-10-17T01:15:05.266Z,18.70
2022-10-17T01:17:42.559Z,29.02
2022-10-17T01:20:44.611Z,21.67
2022-10-17T01:23:38.801Z,21.42
2022-10-17T01:26:25.687Z,17.85
2022-10-17T01:29:08.074Z,19.13
2022-10-17T01:31:48.613Z,21.35
2022-10-17T01:34:33.115Z,22.77
2022-10-17T01:37:17.990Z,22.00
2022-10-17T01:40:03.192Z,19.95
2022-10-17T01:42:41.578Z,17.13
2022-10-17T01:45:21.217Z,18.13
2022-10-17T01:47:51.480Z,21.48
2022-10-17T01:50:30.914Z,19.77
2022-10-17T01:53:03.873Z,24.17
2022-10-17T01:55:36.583Z,23.23
2022-10-17T01:58:10.831Z,18.55
2022-10-17T02:00:38.228Z,24.30
2022-10-17T02:03:09.572Z,21.45
2022-10-17T02:05:39.960Z,20.95
2022-10-17T02:08:07.189Z,19.92
2022-10-17T02:10:55.948Z,23.80
2022-10-17T02:13:49.293Z,19.77
2022-10-17T02:16:44.485Z,16.73
2022-10-17T02:19:37.541Z,20.23
2022-10-17T02:22:24.999Z,17.75
2022-10-17T02:25:07.788Z,19.50
2022-10-17T02:27:56.411Z,29.90
2022-10-17T02:30:33.482Z,21.20
2022-10-17T02:33:13.149Z,15.75
2022-10-17T02:35:45.023Z,15.55
2022-10-17T02:38:12.294Z,17.00
2022-10-17T02:40:40.348Z,16.40
2022-10-17T02:43:07.550Z,15.85
2022-10-17T02:45:37.087Z,18.27
2022-10-17T02:48:19.301Z,19.40
2022-10-17T02:50:59.474Z,19.98
2022-10-17T02:53:37.813Z,16.45
2022-10-17T02:56:17.211Z,20.27
2022-10-17T02:58:47.509Z,16.75
2022-10-17T03:01:14.594Z,14.32
2022-10-17T03:03:41.107Z,15.13
2022-10-17T03:06:07.601Z,11.77
2022-10-17T03:08:34.263Z,17.98
2022-10-17T03:11:00.835Z,12.88
2022-10-17T03:13:27.295Z,12.88
2022-10-17T03:15:53.727Z,16.60
2022-10-17T03:18:20.158Z,14.35
2022-10-17T03:20:46.603Z,13.38
2022-10-17T03:23:13.151Z,13.77
2022-10-17T03:25:40.499Z,15.23
2022-10-17T03:28:06.916Z,17.98
2022-10-17T03:30:33.991Z,18.30
2022-10-17T03:33:00.919Z,14.80
2022-10-17T03:35:29.632Z,18.00
2022-10-17T03:37:56.325Z,16.88
2022-10-17T03:40:22.751Z,15.63
2022-10-17T03:42:49.211Z,20.63
2022-10-17T03:45:16.084Z,19.45
2022-10-17T03:47:42.494Z,14.40
2022-10-17T03:50:09.172Z,18.73
2022-10-17T03:52:35.618Z,14.82
2022-10-17T03:55:02.042Z,19.00
2022-10-17T03:57:28.779Z,15.60
2022-10-17T03:59:55.387Z,15.10
2022-10-17T04:02:23.141Z,15.30
2022-10-17T04:04:49.578Z,14.80
2022-10-17T04:07:16.059Z,14.95
2022-10-17T04:09:42.887Z,16.40
2022-10-17T04:12:09.292Z,16.60
2022-10-17T04:14:37.543Z,25.55
2022-10-17T04:17:04.145Z,17.92
2022-10-17T04:19:30.619Z,15.20
2022-10-17T04:21:57.860Z,14.15
2022-10-17T04:24:25.655Z,17.98
2022-10-17T04:26:52.351Z,14.85
2022-10-17T04:29:19.062Z,14.82
2022-10-17T04:31:45.481Z,13.85
2022-10-17T04:34:14.140Z,18.00
2022-10-17T04:36:40.764Z,15.35
2022-10-17T04:39:07.240Z,15.05
2022-10-17T04:41:33.964Z,16.63
2022-10-17T04:44:00.563Z,16.38
2022-10-17T04:46:27.010Z,17.58
2022-10-17T04:48:54.030Z,19.15
2022-10-17T04:51:23.090Z,18.88
2022-10-17T04:53:52.350Z,18.25
2022-10-17T04:56:20.969Z,21.25
2022-10-17T04:58:48.234Z,24.85
2022-10-17T05:01:17.559Z,17.88
2022-10-17T05:03:44.299Z,22.85
2022-10-17T05:06:13.304Z,23.33
2022-10-17T05:08:39.965Z,27.75
2022-10-17T05:11:16.044Z,21.95
2022-10-17T05:13:42.508Z,21.40
2022-10-17T05:16:09.101Z,20.13
2022-10-17T05:18:35.505Z,22.10
2022-10-17T05:21:03.928Z,18.75
2022-10-17T05:23:30.797Z,20.55
2022-10-17T05:25:57.229Z,19.98
2022-10-17T05:28:24.141Z,26.73
2022-10-17T05:30:50.755Z,21.02
2022-10-17T05:33:17.188Z,21.08
2022-10-17T05:35:43.699Z,27.58
2022-10-17T05:38:10.147Z,18.50
2022-10-17T05:40:38.441Z,19.58
2022-10-17T05:43:05.224Z,19.25
2022-10-17T05:45:31.756Z,18.85
2022-10-17T05:47:58.158Z,23.00
2022-10-17T05:50:25.177Z,18.77
2022-10-17T05:52:55.274Z,21.20
2022-10-17T05:55:22.157Z,20.00
2022-10-17T05:57:49.671Z,19.35
2022-10-17T06:00:16.299Z,17.60
2022-10-17T06:02:46.061Z,18.90
2022-10-17T06:05:13.582Z,18.63
2022-10-17T06:07:40.479Z,16.88
2022-10-17T06:10:07.249Z,19.02
2022-10-17T06:12:33.895Z,19.35
2022-10-17T06:15:00.734Z,15.27
2022-10-17T06:17:28.480Z,19.95
2022-10-17T06:19:57.189Z,14.60
2022-10-17T06:22:23.638Z,16.17
2022-10-17T06:24:50.036Z,16.42
2022-10-17T06:27:16.431Z,13.38
2022-10-17T06:29:42.900Z,14.30
2022-10-17T06:32:12.625Z,14.60
2022-10-17T06:34:41.486Z,19.38
2022-10-17T06:37:07.952Z,13.18
2022-10-17T06:39:35.817Z,12.00
2022-10-17T06:42:03.469Z,10.40
2022-10-17T06:44:31.751Z,11.20
2022-10-17T06:46:59.184Z,10.68
2022-10-17T06:49:25.726Z,14.40
2022-10-17T06:51:52.148Z,11.30
2022-10-17T06:54:18.569Z,10.73
2022-10-17T06:56:45.069Z,9.55
2022-10-17T06:59:11.515Z,8.77
2022-10-17T07:01:39.023Z,9.02
2022-10-17T07:04:07.240Z,7.93
2022-10-17T07:06:34.152Z,11.50
2022-10-17T07:09:02.674Z,7.80
2022-10-17T07:11:29.299Z,7.53
2022-10-17T07:13:55.697Z,8.07
2022-10-17T07:16:22.183Z,6.72
2022-10-17T07:18:49.986Z,8.13
2022-10-17T07:21:16.611Z,9.80
2022-10-17T07:23:43.062Z,7.97
2022-10-17T07:26:12.382Z,19.05
2022-10-17T07:28:40.972Z,9.40
2022-10-17T07:31:09.693Z,7.35
2022-10-17T07:33:36.455Z,12.35
2022-10-17T07:36:04.782Z,8.82
2022-10-17T07:38:31.682Z,6.80
2022-10-17T07:40:59.960Z,9.45
2022-10-17T07:43:27.060Z,6.50
2022-10-17T07:45:54.242Z,7.30
2022-10-17T07:48:21.607Z,7.85
2022-10-17T07:50:48.168Z,9.38
2022-10-17T07:53:14.627Z,6.60
2022-10-17T07:55:41.961Z,7.20
2022-10-17T07:58:09.102Z,8.52
2022-10-17T08:00:39.368Z,7.35
2022-10-17T08:03:06.617Z,5.70
2022-10-17T08:05:34.588Z,8.15
2022-10-17T08:08:01.024Z,5.90
2022-10-17T08:10:29.240Z,7.05
2022-10-17T08:12:57.654Z,5.80
2022-10-17T08:15:30.929Z,10.82
2022-10-17T08:17:59.025Z,8.23
2022-10-17T08:20:26.311Z,8.15
2022-10-17T08:22:53.882Z,8.63
2022-10-17T08:25:20.988Z,10.73
2022-10-17T08:27:47.428Z,7.10
2022-10-17T08:30:13.927Z,5.90
2022-10-17T08:32:40.364Z,7.68
2022-10-17T08:35:07.152Z,6.35
2022-10-17T08:37:34.041Z,7.15
2022-10-17T08:40:00.647Z,7.90
2022-10-17T08:42:53.180Z,6.93
2022-10-17T08:45:38.351Z,5.85
2022-10-17T08:48:11.032Z,6.40
2022-10-17T08:50:43.603Z,7.40
2022-10-17T08:53:26.974Z,8.65
2022-10-17T08:58:26.196Z,5.85
2022-10-17T09:01:33.791Z,6.35
2022-10-17T09:04:33.785Z,7.05
2022-10-17T09:07:12.394Z,6.85
2022-10-17T09:10:22.885Z,6.60
2022-10-17T09:13:32.699Z,6.93
2022-10-17T09:16:31.005Z,6.68
2022-10-17T09:19:08.213Z,9.05
2022-10-17T09:21:59.434Z,7.53
2022-10-17T09:24:43.816Z,10.32
2022-10-17T09:27:25.363Z,11.23
2022-10-17T09:30:17.202Z,8.95
2022-10-17T09:32:59.464Z,9.05
2022-10-17T09:35:28.213Z,6.80
2022-10-17T09:37:54.936Z,9.77
2022-10-17T09:40:26.696Z,8.40
2022-10-17T09:42:53.792Z,8.15
2022-10-17T09:45:27.064Z,7.68
2022-10-17T09:48:19.096Z,6.05
2022-10-17T09:50:53.868Z,8.80
2022-10-17T09:53:37.703Z,6.03
2022-10-17T09:56:09.901Z,6.32
2022-10-17T09:58:46.882Z,7.10
2022-10-17T10:04:14.102Z,8.95
2022-10-17T10:06:42.073Z,6.15
2022-10-17T10:09:23.877Z,8.57
2022-10-17T10:11:53.004Z,21.60
2022-10-17T10:14:23.612Z,11.35
2022-10-17T10:16:53.713Z,7.15
2022-10-17T10:19:34.517Z,11.70
2022-10-17T10:22:03.810Z,10.75
2022-10-17T10:24:31.373Z,5.63
2022-10-17T10:27:01.981Z,6.53
2022-10-17T10:29:38.147Z,14.50
2022-10-17T10:32:19.680Z,8.10
2022-10-17T10:34:56.523Z,11.60
2022-10-17T10:39:59.822Z,14.00
2022-10-17T10:42:33.957Z,11.68
2022-10-17T10:48:24.170Z,10.52
2022-10-17T10:50:56.914Z,7.03
2022-10-17T10:53:35.181Z,7.50
2022-10-17T10:56:09.806Z,7.03
2022-10-17T10:58:56.921Z,6.32
2022-10-17T11:01:46.683Z,13.90
2022-10-17T11:04:22.461Z,11.23
2022-10-17T11:06:52.607Z,5.75
2022-10-17T11:09:44.763Z,7.20
2022-10-17T11:12:20.540Z,6.97
2022-10-17T11:15:03.269Z,7.95
2022-10-17T11:17:45.938Z,9.98
2022-10-17T11:20:22.334Z,10.30
2022-10-17T11:22:54.265Z,6.97
2022-10-17T11:25:40.774Z,6.55
2022-10-17T11:28:15.824Z,6.72
2022-10-17T11:30:47.898Z,7.43
2022-10-17T11:33:24.311Z,10.07
2022-10-17T11:35:53.448Z,11.70
2022-10-17T11:38:45.164Z,7.07
2022-10-17T11:41:17.828Z,6.78
2022-10-17T11:43:51.714Z,11.90
2022-10-17T11:46:28.556Z,8.10
2022-10-17T11:49:11.324Z,13.02
2022-10-17T11:52:05.363Z,14.82
2022-10-17T11:54:35.038Z,8.63
2022-10-17T11:57:42.035Z,7.03
2022-10-17T12:00:17.481Z,7.80
2022-10-17T12:02:48.213Z,8.23
2022-10-17T12:06:01.236Z,8.20
2022-10-17T12:08:40.621Z,4.68
2022-10-17T12:11:18.732Z,6.55
2022-10-17T12:13:54.494Z,7.47
2022-10-17T12:16:21.016Z,8.07
2022-10-17T12:18:50.367Z,7.68
2022-10-17T12:21:16.897Z,7.43
2022-10-17T12:23:52.842Z,6.82
2022-10-17T12:26:27.531Z,8.45
2022-10-17T12:28:54.680Z,6.38
2022-10-17T12:31:32.547Z,7.03
2022-10-17T12:34:02.186Z,5.45
2022-10-17T12:36:28.634Z,15.35
2022-10-17T12:39:04.031Z,8.60
2022-10-17T12:41:39.653Z,8.63
2022-10-17T12:44:13.851Z,10.40
2022-10-17T12:47:18.838Z,6.10
2022-10-17T12:49:55.740Z,5.72
2022-10-17T12:52:34.919Z,7.13
2022-10-17T12:55:12.986Z,10.52
2022-10-17T12:57:50.298Z,8.90
2022-10-17T13:00:25.392Z,7.40
2022-10-17T13:02:54.818Z,9.10
2022-10-17T13:05:34.186Z,8.80
2022-10-17T13:08:04.864Z,6.10
2022-10-17T13:10:40.662Z,5.82
2022-10-17T13:13:19.011Z,8.38
2022-10-17T13:15:50.160Z,8.27
2022-10-17T13:18:28.778Z,6.35
2022-10-17T13:21:02.210Z,6.95
2022-10-17T13:23:34.726Z,7.68
2022-10-17T13:26:22.379Z,9.68
2022-10-17T13:29:05.093Z,7.13
2022-10-17T13:31:37.410Z,8.65
2022-10-17T13:34:07.016Z,7.25
2022-10-17T13:36:35.290Z,7.30
2022-10-17T13:39:12.086Z,7.55
2022-10-17T13:41:40.644Z,5.97
2022-10-17T13:44:14.895Z,5.20
2022-10-17T13:46:41.794Z,6.05
2022-10-17T13:49:34.135Z,9.50
2022-10-17T13:52:03.788Z,6.10
2022-10-17T13:54:32.835Z,6.15
2022-10-17T13:57:00.249Z,7.90
2022-10-17T13:59:38.634Z,6.25
2022-10-17T14:02:12.782Z,6.47
2022-10-17T14:05:04.036Z,6.32
2022-10-17T14:07:46.273Z,6.78
2022-10-17T14:10:22.579Z,7.07
2022-10-17T14:12:51.233Z,8.85
2022-10-17T14:15:18.657Z,7.60
2022-10-17T14:17:45.909Z,9.80
2022-10-17T14:23:40.313Z,6.82
2022-10-17T14:26:11.992Z,8.77
2022-10-17T14:28:39.865Z,7.55
2022-10-17T14:31:14.084Z,7.22
2022-10-17T14:33:49.676Z,6.90
2022-10-17T14:38:50.012Z,5.75
2022-10-17T14:41:47.560Z,6.75
2022-10-17T14:44:24.604Z,6.55
2022-10-17T14:49:27.378Z,7.25
2022-10-17T14:52:22.396Z,7.55
2022-10-17T14:54:49.724Z,7.07
2022-10-17T14:57:22.026Z,7.90
2022-10-17T14:59:55.913Z,10.82
2022-10-17T15:02:24.702Z,9.77
2022-10-17T15:04:51.399Z,7.03
2022-10-17T15:07:18.036Z,7.28
2022-10-17T15:09:46.978Z,6.57
2022-10-17T15:12:16.608Z,9.30
2022-10-17T15:14:44.157Z,12.88
2022-10-17T15:17:14.437Z,7.10
2022-10-17T15:19:44.439Z,6.85
2022-10-17T15:22:10.960Z,7.47
2022-10-17T15:24:37.376Z,7.97
2022-10-17T15:27:12.911Z,8.82
2022-10-17T15:29:39.314Z,7.15
2022-10-17T15:32:06.481Z,5.75
2022-10-17T15:34:33.103Z,8.05
2022-10-17T15:36:59.532Z,5.70
2022-10-17T15:39:25.983Z,10.98
2022-10-17T15:41:52.418Z,10.70
2022-10-17T15:44:18.822Z,8.98
2022-10-17T15:46:45.289Z,5.20
2022-10-17T15:49:14.485Z,10.48
2022-10-17T15:51:40.891Z,11.32
2022-10-17T15:54:07.695Z,7.15
2022-10-17T15:56:40.904Z,10.10
2022-10-17T15:59:17.887Z,7.82
2022-10-17T16:04:15.608Z,21.35
2022-10-17T16:06:42.638Z,6.95
2022-10-17T16:09:09.380Z,10.30
2022-10-17T16:11:38.388Z,7.30
2022-10-17T16:14:09.862Z,6.97
2022-10-17T16:16:36.321Z,7.82
2022-10-17T16:19:03.391Z,14.98
2022-10-17T16:21:32.890Z,10.55
2022-10-17T16:23:59.333Z,8.02
2022-10-17T16:26:26.487Z,7.72
2022-10-17T16:28:53.094Z,9.48
2022-10-17T16:31:29.343Z,14.93
2022-10-17T16:33:57.593Z,8.82
2022-10-17T16:36:24.650Z,10.10
2022-10-17T16:38:52.426Z,7.20
2022-10-17T16:41:24.577Z,10.10
2022-10-17T16:43:52.715Z,9.43
2022-10-17T16:46:20.350Z,8.27
2022-10-17T16:48:46.842Z,11.10
2022-10-17T16:51:14.972Z,11.70
2022-10-17T16:53:44.664Z,8.52
2022-10-17T16:56:13.458Z,10.82
2022-10-17T16:58:41.192Z,11.55
2022-10-17T17:01:13.242Z,13.05
2022-10-17T17:03:42.932Z,10.88
2022-10-17T17:06:13.273Z,12.63
2022-10-17T17:08:39.736Z,11.25
2022-10-17T17:11:08.017Z,9.80
2022-10-17T17:13:35.101Z,10.23
2022-10-17T17:16:13.620Z,12.88
2022-10-17T17:18:40.946Z,14.77
2022-10-17T17:21:09.077Z,13.65
2022-10-17T17:23:37.734Z,9.25
2022-10-17T17:26:14.204Z,15.70
2022-10-17T17:28:41.551Z,13.63
2022-10-17T17:31:10.392Z,10.23
2022-10-17T17:33:38.518Z,12.32
2022-10-17T17:36:05.223Z,11.20
2022-10-17T17:38:35.065Z,12.30
2022-10-17T17:41:01.708Z,12.63
2022-10-17T17:43:28.517Z,9.77
2022-10-17T17:45:54.979Z,9.63
2022-10-17T17:48:21.937Z,9.48
2022-10-17T17:50:49.887Z,10.65
2022-10-17T17:53:16.902Z,11.88
2022-10-17T17:55:43.395Z,12.68
2022-10-17T17:58:10.014Z,11.52
2022-10-17T18:00:36.435Z,8.60
2022-10-17T18:03:03.307Z,8.55
2022-10-17T18:05:30.378Z,8.13
2022-10-17T18:07:56.915Z,11.55
2022-10-17T18:10:23.448Z,9.52
2022-10-17T18:12:49.915Z,10.18
2022-10-17T18:15:16.722Z,10.25
2022-10-17T18:17:43.264Z,10.35
2022-10-17T18:20:10.190Z,8.93
2022-10-17T18:22:36.655Z,13.18
2022-10-17T18:25:04.263Z,8.95
2022-10-17T18:27:30.667Z,10.18
2022-10-17T18:29:57.119Z,9.15
2022-10-17T18:32:23.540Z,16.85
2022-10-17T18:34:49.945Z,12.68
2022-10-17T18:37:16.405Z,12.50
2022-10-17T18:39:42.974Z,11.77
2022-10-17T18:42:09.659Z,11.05
2022-10-17T18:44:37.273Z,8.35
2022-10-17T18:47:04.649Z,12.77
2022-10-17T18:49:31.305Z,10.20
2022-10-17T18:51:57.817Z,11.13
2022-10-17T18:54:24.658Z,14.57
2022-10-17T18:56:52.917Z,11.35
2022-10-17T18:59:20.143Z,9.15
2022-10-17T19:01:48.431Z,12.27
2022-10-17T19:04:15.131Z,10.10
2022-10-17T19:06:42.458Z,10.48
2022-10-17T19:09:11.765Z,9.43
2022-10-17T19:11:39.012Z,12.93
2022-10-17T19:14:15.852Z,12.52
2022-10-17T19:16:45.354Z,10.27
2022-10-17T19:19:19.320Z,11.20
2022-10-17T19:21:46.309Z,13.25
2022-10-17T19:24:15.619Z,11.20
2022-10-17T19:26:43.504Z,9.43
2022-10-17T19:29:13.163Z,10.15
2022-10-17T19:31:39.925Z,11.35
2022-10-17T19:34:06.497Z,8.57
2022-10-17T19:36:34.778Z,12.20
2022-10-17T19:39:03.917Z,8.68
2022-10-17T19:41:30.416Z,11.90
2022-10-17T19:43:57.509Z,9.52
2022-10-17T19:46:26.175Z,12.60
2022-10-17T19:48:52.934Z,8.95
2022-10-17T19:51:22.008Z,7.97
2022-10-17T19:53:48.684Z,10.77
2022-10-17T19:56:18.816Z,11.52
2022-10-17T19:58:46.586Z,9.38
2022-10-17T20:01:16.334Z,14.90
2022-10-17T20:03:42.764Z,11.45
2022-10-17T20:06:09.862Z,11.32
2022-10-17T20:08:37.833Z,10.20
2022-10-17T20:11:06.903Z,11.20
2022-10-17T20:13:35.817Z,10.07
2022-10-17T20:16:03.090Z,11.40
2022-10-17T20:18:29.626Z,9.73
2022-10-17T20:20:56.359Z,11.52
2022-10-17T20:23:22.867Z,13.88
2022-10-17T20:26:06.814Z,9.38
2022-10-17T20:28:45.911Z,9.90
2022-10-17T20:31:13.265Z,13.68
2022-10-17T20:33:41.609Z,14.65
2022-10-17T20:36:10.206Z,10.98
2022-10-17T20:38:36.759Z,14.60
2022-10-17T20:41:05.728Z,14.63
2022-10-17T20:43:32.548Z,11.52
2022-10-17T20:46:08.539Z,14.20
2022-10-17T20:48:42.314Z,16.75
2022-10-17T20:51:11.019Z,11.55
2022-10-17T20:53:37.930Z,12.15
2022-10-17T20:56:07.476Z,10.10
2022-10-17T20:58:34.514Z,10.55
2022-10-17T21:01:09.215Z,10.95
2022-10-17T21:03:42.375Z,12.90
2022-10-17T21:06:12.382Z,11.88
2022-10-17T21:08:39.107Z,12.95
2022-10-17T21:11:13.896Z,10.38
2022-10-17T21:13:41.071Z,11.07
2022-10-17T21:16:10.396Z,13.52
2022-10-17T21:18:37.453Z,11.32
2022-10-17T21:21:08.640Z,9.70
2022-10-17T21:26:01.760Z,11.48
2022-10-17T21:28:28.214Z,10.07
2022-10-17T21:30:54.796Z,12.07
2022-10-17T21:33:21.322Z,11.18
2022-10-17T21:35:47.752Z,11.38
2022-10-17T21:38:14.161Z,10.68
2022-10-17T21:40:40.648Z,10.90
2022-10-17T21:43:07.058Z,10.07
2022-10-17T21:45:35.791Z,13.63
2022-10-17T21:48:12.704Z,10.13
2022-10-17T21:50:40.890Z,16.13
2022-10-17T21:53:08.396Z,8.63
2022-10-17T21:55:38.146Z,10.15
2022-10-17T21:58:05.008Z,11.02
2022-10-17T22:00:31.784Z,10.35
2022-10-17T22:02:58.231Z,12.60
2022-10-17T22:05:24.807Z,11.85
2022-10-17T22:07:51.208Z,9.07
2022-10-17T22:10:17.612Z,13.38
2022-10-17T22:12:44.077Z,10.32
2022-10-17T22:15:10.558Z,10.63
2022-10-17T22:17:37.188Z,12.43
2022-10-17T22:20:03.759Z,10.38
2022-10-17T22:22:30.424Z,11.90
2022-10-17T22:24:56.879Z,10.40
2022-10-17T22:27:23.290Z,8.90
2022-10-17T22:29:49.705Z,11.15
2022-10-17T22:32:20.079Z,9.77
2022-10-17T22:34:48.913Z,8.93
2022-10-17T22:37:15.338Z,9.70
2022-10-17T22:39:41.826Z,9.95
2022-10-17T22:42:08.251Z,11.82
2022-10-17T22:44:34.740Z,13.02
2022-10-17T22:47:01.189Z,12.25
2022-10-17T22:49:27.868Z,9.20
2022-10-17T22:51:55.295Z,12.77
2022-10-17T22:54:21.695Z,13.85
2022-10-17T22:56:48.133Z,8.48
2022-10-17T22:59:15.285Z,9.55
2022-10-17T23:01:41.783Z,11.15
2022-10-17T23:04:08.280Z,10.35
2022-10-17T23:06:34.886Z,12.90
2022-10-17T23:09:01.386Z,12.80
2022-10-17T23:11:27.825Z,11.25
2022-10-17T23:13:54.677Z,12.10
2022-10-17T23:16:21.144Z,9.35
2022-10-17T23:18:47.622Z,9.85
2022-10-17T23:21:14.303Z,11.70
2022-10-17T23:23:40.746Z,10.73
2022-10-17T23:26:09.846Z,12.25
2022-10-17T23:28:36.355Z,12.43
2022-10-17T23:31:12.203Z,11.07
2022-10-17T23:33:41.161Z,12.65
2022-10-17T23:36:12.788Z,12.18
2022-10-17T23:38:40.456Z,9.57
2022-10-17T23:41:07.070Z,11.15
2022-10-17T23:43:34.458Z,10.30
2022-10-17T23:46:02.441Z,14.18
2022-10-17T23:48:29.273Z,10.05
2022-10-17T23:50:56.020Z,11.07
2022-10-17T23:53:23.427Z,12.82
2022-10-17T23:55:49.836Z,11.93
2022-10-17T23:58:16.467Z,11.52
